Airfield :
LOGIN :

Register | Disclaimer

   EN    FR    IT 

 










Legend :    VFR   Marginal VFR   IFR   Intensive IFR   Very Intensive IFR
Visi :
Ceiling :
>= 8 km
>= 3000ft
5 to 8 km
1000 to 3000 ft
1500m to 5 km
500 to 1000 ft
800 to 1500m
200 to 500 ft
< 800m
< 200 ft
Symbols :   Thunderstorms  Fog  Heavy snow  Heavy precipitations  Wind > 20 kt
SIGMETs :     Misc.  Thunderstorms  Icing  Turbulence  Mountain Waves  Volcanic Ashes






- Airport Elevation : 412 ft
- IATA code : ADB


LTBJ - Adnan Menderes

CURRENT METAR :
  • 310350Z 16002KT CAVOK 12/11 Q1016 NOSIG RMK RWY16 18006KT

EXPIRED METARs :
  • 310320Z 17003KT CAVOK 11/10 Q1016 NOSIG RMK RWY16 19006KT
  • 310250Z 15003KT CAVOK 11/10 Q1016 NOSIG RMK RWY16 17006KT
  • 310220Z VRB02KT CAVOK 11/10 Q1016 NOSIG RMK RWY16 17006KT
  • 310150Z VRB02KT CAVOK 12/10 Q1016 NOSIG RMK RWY16 18007KT

TAF TAF LTBJ
Valid from the 31 at 00:00 until the 01 at 00:00 UTC


302240Z 3100/3124 VRB02KT CAVOK
BECMG 3106/3108 18012KT SCT030
BECMG 3115/3117 VRB02KT



MET'MAP, your aeronautical weather chart ! - Copyright ORBIFLY December 2007 - Disclaimer

ORBIFLY MET'MAP TEAM :

Programming & Development : Alexandra Zaïnal
Concept & original design : Baudouin d'Aumeries
Assistance for programming : Marc-Olivier Méhu
Technical & hardware support : Manuel Goepfert

Contact : metmap@orbifly.com




SOURCES & CREDITS :

   NOAA